createdAt,value
2023-08-31T00:01:05.507Z,90.10
2023-08-31T00:03:33.813Z,90.00
2023-08-31T00:06:05.309Z,90.00
2023-08-31T00:08:34.213Z,90.10
2023-08-31T00:11:02.451Z,90.00
2023-08-31T00:13:30.380Z,90.00
2023-08-31T00:15:59.934Z,90.00
2023-08-31T00:18:27.880Z,90.10
2023-08-31T00:20:55.242Z,90.00
2023-08-31T00:23:22.682Z,90.00
2023-08-31T00:25:50.132Z,90.00
2023-08-31T00:28:19.641Z,90.00
2023-08-31T00:30:47.876Z,89.80
2023-08-31T00:33:16.716Z,90.00
2023-08-31T00:35:47.344Z,90.00
2023-08-31T00:38:15.713Z,90.00
2023-08-31T00:40:46.915Z,89.90
2023-08-31T00:43:19.093Z,89.80
2023-08-31T00:45:52.564Z,89.90
2023-08-31T00:48:20.593Z,89.90
2023-08-31T00:50:48.642Z,90.00
2023-08-31T00:53:18.455Z,90.00
2023-08-31T00:55:49.074Z,89.80
2023-08-31T00:58:16.793Z,90.00
2023-08-31T01:01:07.839Z,89.80
2023-08-31T01:03:48.069Z,89.70
2023-08-31T01:07:04.079Z,89.80
2023-08-31T01:10:05.663Z,90.00
2023-08-31T01:12:48.815Z,89.70
2023-08-31T01:15:18.267Z,89.60
2023-08-31T01:17:57.982Z,89.70
2023-08-31T01:20:44.046Z,89.70
2023-08-31T01:23:21.866Z,89.70
2023-08-31T01:25:49.857Z,89.80
2023-08-31T01:28:17.564Z,90.10
2023-08-31T01:30:44.908Z,89.60
2023-08-31T01:33:14.145Z,89.80
2023-08-31T01:35:54.319Z,89.60
2023-08-31T01:38:29.887Z,89.60
2023-08-31T01:41:12.721Z,89.80
2023-08-31T01:43:43.447Z,89.60
2023-08-31T01:46:11.670Z,89.40
2023-08-31T01:48:42.403Z,89.60
2023-08-31T01:51:11.473Z,89.50
2023-08-31T01:53:39.093Z,89.50
2023-08-31T01:56:07.231Z,89.40
2023-08-31T01:58:34.605Z,89.50
2023-08-31T02:01:02.319Z,89.60
2023-08-31T02:03:29.932Z,89.40
2023-08-31T02:05:57.565Z,89.50
2023-08-31T02:08:25.021Z,89.50
2023-08-31T02:10:52.569Z,89.50
2023-08-31T02:13:20.157Z,89.60
2023-08-31T02:15:47.585Z,89.50
2023-08-31T02:18:15.050Z,89.40
2023-08-31T02:20:42.441Z,89.30
2023-08-31T02:23:11.123Z,89.60
2023-08-31T02:25:38.960Z,89.60
2023-08-31T02:28:06.556Z,89.60
2023-08-31T02:30:34.125Z,89.70
2023-08-31T02:33:01.627Z,89.50
2023-08-31T02:35:29.145Z,89.40
2023-08-31T02:37:56.582Z,89.60
2023-08-31T02:40:24.255Z,89.50
2023-08-31T02:42:55.270Z,89.50
2023-08-31T02:45:23.210Z,89.40
2023-08-31T02:47:51.411Z,89.40
2023-08-31T02:50:19.849Z,89.20
2023-08-31T02:52:47.153Z,89.50
2023-08-31T02:55:14.654Z,89.20
2023-08-31T02:57:44.790Z,89.00
2023-08-31T03:00:17.002Z,89.40
2023-08-31T03:02:45.110Z,89.40
2023-08-31T03:05:13.141Z,89.50
2023-08-31T03:07:40.568Z,88.90
2023-08-31T03:10:08.690Z,89.30
2023-08-31T03:12:36.148Z,89.40
2023-08-31T03:15:04.181Z,89.50
2023-08-31T03:17:31.509Z,89.60
2023-08-31T03:19:58.850Z,89.60
2023-08-31T03:22:26.312Z,89.60
2023-08-31T03:24:53.805Z,89.50
2023-08-31T03:27:21.635Z,89.60
2023-08-31T03:29:49.010Z,89.60
2023-08-31T03:32:16.428Z,89.60
2023-08-31T03:34:43.779Z,89.60
2023-08-31T03:37:11.190Z,89.60
2023-08-31T03:39:38.518Z,89.70
2023-08-31T03:42:06.315Z,89.70
2023-08-31T03:44:33.855Z,89.70
2023-08-31T03:47:01.134Z,89.70
2023-08-31T03:49:28.701Z,89.70
2023-08-31T03:51:56.075Z,89.70
2023-08-31T03:54:23.433Z,89.70
2023-08-31T03:56:50.790Z,89.70
2023-08-31T03:59:18.768Z,89.70
2023-08-31T04:04:37.908Z,89.70
2023-08-31T04:07:06.209Z,89.80
2023-08-31T04:09:34.118Z,89.70
2023-08-31T04:12:01.407Z,89.60
2023-08-31T04:14:29.008Z,89.70
2023-08-31T04:16:57.828Z,89.70
2023-08-31T04:19:25.392Z,89.60
2023-08-31T04:21:52.842Z,89.60
2023-08-31T04:24:20.441Z,89.60
2023-08-31T04:26:49.393Z,90.00
2023-08-31T04:29:19.657Z,89.60
2023-08-31T04:31:47.142Z,89.70
2023-08-31T04:34:18.082Z,89.60
2023-08-31T04:36:45.595Z,89.60
2023-08-31T04:39:13.407Z,90.10
2023-08-31T04:41:40.747Z,89.70
2023-08-31T04:44:07.965Z,89.70
2023-08-31T04:46:35.463Z,89.70
2023-08-31T04:49:02.807Z,89.80
2023-08-31T04:51:36.113Z,89.70
2023-08-31T04:54:04.207Z,89.70
2023-08-31T04:56:34.418Z,89.60
2023-08-31T04:59:04.341Z,89.80
2023-08-31T05:01:31.967Z,89.80
2023-08-31T05:04:00.296Z,89.80
2023-08-31T05:06:28.362Z,90.00
2023-08-31T05:08:56.215Z,89.90
2023-08-31T05:11:23.813Z,89.90
2023-08-31T05:13:51.305Z,89.80
2023-08-31T05:16:18.955Z,89.80
2023-08-31T05:18:46.709Z,89.90
2023-08-31T05:21:14.143Z,89.80
2023-08-31T05:23:45.025Z,89.80
2023-08-31T05:26:12.747Z,89.70
2023-08-31T05:28:40.476Z,90.10
2023-08-31T05:31:08.042Z,90.30
2023-08-31T05:33:35.717Z,90.30
2023-08-31T05:36:07.438Z,90.50
2023-08-31T05:38:34.898Z,90.50
2023-08-31T05:41:20.801Z,90.60
2023-08-31T05:43:48.750Z,90.60
2023-08-31T05:46:16.928Z,90.70
2023-08-31T05:48:44.520Z,90.80
2023-08-31T05:51:12.226Z,90.80
2023-08-31T05:53:39.740Z,90.80
2023-08-31T05:56:08.500Z,90.80
2023-08-31T05:58:37.933Z,91.00
2023-08-31T06:01:06.811Z,91.00
2023-08-31T06:03:34.387Z,91.00
2023-08-31T06:06:06.186Z,91.30
2023-08-31T06:08:33.790Z,91.30
2023-08-31T06:11:01.636Z,91.30
2023-08-31T06:13:29.243Z,91.20
2023-08-31T06:16:01.207Z,91.20
2023-08-31T06:18:28.679Z,91.20
2023-08-31T06:20:56.165Z,91.10
2023-08-31T06:23:23.693Z,91.10
2023-08-31T06:25:51.263Z,91.10
2023-08-31T06:28:18.666Z,91.10
2023-08-31T06:30:48.982Z,91.10
2023-08-31T06:33:17.089Z,91.00
2023-08-31T06:35:46.850Z,91.00
2023-08-31T06:38:14.158Z,91.00
2023-08-31T06:40:44.841Z,90.90
2023-08-31T06:43:12.658Z,90.90
2023-08-31T06:45:41.709Z,90.90
2023-08-31T06:48:10.032Z,90.90
2023-08-31T06:50:37.454Z,90.80
2023-08-31T06:53:05.204Z,90.80
2023-08-31T06:55:33.438Z,90.80
2023-08-31T06:58:03.641Z,90.80
2023-08-31T07:00:31.564Z,90.80
2023-08-31T07:02:59.020Z,90.80
2023-08-31T07:05:28.913Z,90.80
2023-08-31T07:07:56.769Z,90.70
2023-08-31T07:10:24.228Z,90.70
2023-08-31T07:12:52.370Z,90.70
2023-08-31T07:15:20.002Z,90.60
2023-08-31T07:17:47.453Z,90.60
2023-08-31T07:20:17.688Z,90.70
2023-08-31T07:22:45.148Z,90.60
2023-08-31T07:25:13.398Z,90.80
2023-08-31T07:27:41.940Z,90.40
2023-08-31T07:30:09.842Z,90.40
2023-08-31T07:32:37.217Z,90.40
2023-08-31T07:35:06.209Z,90.30
2023-08-31T07:37:33.735Z,90.30
2023-08-31T07:40:01.012Z,90.20
2023-08-31T07:42:29.233Z,90.30
2023-08-31T07:44:56.732Z,90.30
2023-08-31T07:47:24.481Z,90.20
2023-08-31T07:49:51.958Z,90.20
2023-08-31T07:52:19.287Z,90.40
2023-08-31T07:54:46.560Z,90.10
2023-08-31T07:57:13.794Z,90.10
2023-08-31T07:59:41.692Z,90.00
2023-08-31T08:02:09.246Z,90.00
2023-08-31T08:04:36.736Z,90.00
2023-08-31T08:07:04.972Z,89.90
2023-08-31T08:09:32.750Z,89.80
2023-08-31T08:12:00.319Z,89.70
2023-08-31T08:14:27.734Z,89.70
2023-08-31T08:16:55.145Z,89.70
2023-08-31T08:19:24.862Z,89.60
2023-08-31T08:21:55.604Z,89.50
2023-08-31T08:24:23.427Z,89.50
2023-08-31T08:26:51.046Z,89.40
2023-08-31T08:29:18.486Z,89.30
2023-08-31T08:31:46.336Z,89.10
2023-08-31T08:34:13.813Z,89.10
2023-08-31T08:36:41.412Z,89.00
2023-08-31T08:39:09.039Z,88.90
2023-08-31T08:41:38.520Z,89.00
2023-08-31T08:44:09.590Z,89.00
2023-08-31T08:46:37.739Z,89.10
2023-08-31T08:49:06.873Z,88.90
2023-08-31T08:51:34.646Z,89.00
2023-08-31T08:54:03.103Z,88.80
2023-08-31T08:56:30.613Z,88.80
2023-08-31T08:58:58.002Z,88.70
2023-08-31T09:01:26.743Z,88.70
2023-08-31T09:03:54.983Z,88.70
2023-08-31T09:06:23.387Z,88.60
2023-08-31T09:08:59.470Z,88.70
2023-08-31T09:11:27.963Z,88.40
2023-08-31T09:13:58.467Z,88.50
2023-08-31T09:16:33.816Z,88.40
2023-08-31T09:19:01.730Z,88.50
2023-08-31T09:21:42.424Z,88.50
2023-08-31T09:24:13.638Z,88.50
2023-08-31T09:26:46.763Z,88.40
2023-08-31T09:29:15.077Z,88.50
2023-08-31T09:31:48.107Z,88.30
2023-08-31T09:34:20.029Z,88.40
2023-08-31T09:36:47.942Z,88.20
2023-08-31T09:39:16.257Z,88.20
2023-08-31T09:41:57.181Z,87.80
2023-08-31T09:44:24.901Z,87.80
2023-08-31T09:46:54.393Z,87.80
2023-08-31T09:49:23.725Z,87.70
2023-08-31T09:51:51.901Z,87.80
2023-08-31T09:54:24.271Z,87.80
2023-08-31T09:56:53.380Z,87.70
2023-08-31T09:59:20.874Z,87.60
2023-08-31T10:01:49.663Z,87.50
2023-08-31T10:04:18.778Z,87.40
2023-08-31T10:06:46.475Z,87.50
2023-08-31T10:09:16.406Z,87.70
2023-08-31T10:11:44.220Z,88.30
2023-08-31T10:14:13.563Z,87.60
2023-08-31T10:16:42.630Z,87.60
2023-08-31T10:19:10.937Z,87.80
2023-08-31T10:21:40.557Z,87.70
2023-08-31T10:24:08.203Z,87.70
2023-08-31T10:26:35.660Z,87.70
2023-08-31T10:29:05.978Z,88.10
2023-08-31T10:31:36.450Z,87.40
2023-08-31T10:34:06.716Z,87.40
2023-08-31T10:36:53.110Z,87.40
2023-08-31T10:39:23.028Z,87.60
2023-08-31T10:42:00.772Z,87.70
2023-08-31T10:44:36.028Z,87.70
2023-08-31T10:47:06.140Z,87.70
2023-08-31T10:49:38.446Z,87.80
2023-08-31T10:54:57.489Z,88.00
2023-08-31T10:57:32.986Z,88.10
2023-08-31T11:00:01.251Z,88.20
2023-08-31T11:02:45.352Z,88.30
2023-08-31T11:05:24.357Z,88.40
2023-08-31T11:07:57.924Z,88.40
2023-08-31T11:10:29.200Z,88.50
2023-08-31T11:12:59.014Z,88.50
2023-08-31T11:15:28.996Z,88.40
2023-08-31T11:17:57.850Z,88.40
2023-08-31T11:20:30.195Z,88.50
2023-08-31T11:22:58.440Z,88.40
2023-08-31T11:25:26.611Z,88.30
2023-08-31T11:28:01.229Z,88.20
2023-08-31T11:30:35.390Z,88.00
2023-08-31T11:33:12.842Z,87.90
2023-08-31T11:35:47.383Z,87.90
2023-08-31T11:38:15.020Z,87.80
2023-08-31T11:40:43.172Z,87.90
2023-08-31T11:43:11.578Z,87.90
2023-08-31T11:45:40.940Z,88.00
2023-08-31T11:48:09.615Z,88.20
2023-08-31T11:50:38.491Z,88.20
2023-08-31T11:53:05.962Z,88.30
2023-08-31T11:55:35.618Z,88.20
2023-08-31T11:58:09.816Z,88.30
2023-08-31T12:00:37.257Z,88.40
2023-08-31T12:03:07.972Z,88.40
2023-08-31T12:05:49.537Z,88.50
2023-08-31T12:08:17.510Z,88.40
2023-08-31T12:10:45.464Z,88.30
2023-08-31T12:13:17.359Z,88.60
2023-08-31T12:15:45.114Z,88.50
2023-08-31T12:18:16.360Z,88.60
2023-08-31T12:20:56.682Z,88.70
2023-08-31T12:23:24.183Z,88.70
2023-08-31T12:25:53.665Z,88.60
2023-08-31T12:28:23.428Z,88.70
2023-08-31T12:30:53.017Z,88.50
2023-08-31T12:33:22.472Z,88.50
2023-08-31T12:35:50.465Z,88.60
2023-08-31T12:38:19.190Z,88.70
2023-08-31T12:40:46.535Z,88.70
2023-08-31T12:43:14.403Z,88.70
2023-08-31T12:45:42.524Z,88.70
2023-08-31T12:48:10.215Z,88.70
2023-08-31T12:50:37.648Z,88.60
2023-08-31T12:53:05.404Z,88.60
2023-08-31T12:55:32.783Z,88.50
2023-08-31T12:58:00.958Z,88.50
2023-08-31T13:00:28.534Z,88.30
2023-08-31T13:02:56.536Z,88.30
2023-08-31T13:05:24.055Z,88.20
2023-08-31T13:07:51.613Z,88.30
2023-08-31T13:10:18.915Z,88.20
2023-08-31T13:12:46.274Z,88.20
2023-08-31T13:15:14.508Z,88.20
2023-08-31T13:17:42.530Z,88.10
2023-08-31T13:20:10.789Z,88.20
2023-08-31T13:22:38.909Z,88.30
2023-08-31T13:25:06.524Z,88.30
2023-08-31T13:27:37.052Z,88.30
2023-08-31T13:30:08.426Z,88.40
2023-08-31T13:32:36.404Z,88.40
2023-08-31T13:35:04.364Z,88.40
2023-08-31T13:37:33.018Z,88.40
2023-08-31T13:40:01.731Z,88.30
2023-08-31T13:42:36.619Z,88.20
2023-08-31T13:45:04.948Z,88.80
2023-08-31T13:47:32.406Z,88.20
2023-08-31T13:49:59.864Z,88.10
2023-08-31T13:52:27.896Z,88.10
2023-08-31T13:54:55.395Z,88.10
2023-08-31T13:57:22.671Z,88.80
2023-08-31T13:59:49.869Z,88.20
2023-08-31T14:02:17.230Z,88.20
2023-08-31T14:04:44.794Z,88.30
2023-08-31T14:07:12.366Z,88.10
2023-08-31T14:09:40.019Z,88.20
2023-08-31T14:12:08.030Z,88.10
2023-08-31T14:14:37.074Z,88.20
2023-08-31T14:17:04.917Z,88.00
2023-08-31T14:19:34.394Z,88.10
2023-08-31T14:22:01.681Z,88.00
2023-08-31T14:24:29.250Z,88.20
2023-08-31T14:26:56.758Z,88.00
2023-08-31T14:29:29.693Z,88.10
2023-08-31T14:31:57.374Z,88.20
2023-08-31T14:34:26.422Z,88.00
2023-08-31T14:36:56.678Z,88.20
2023-08-31T14:39:26.184Z,88.30
2023-08-31T14:41:53.510Z,88.50
2023-08-31T14:44:20.891Z,88.30
2023-08-31T14:46:48.134Z,88.20
2023-08-31T14:49:15.545Z,88.10
2023-08-31T14:51:43.408Z,88.00
2023-08-31T14:54:11.087Z,88.00
2023-08-31T14:56:38.325Z,88.00
2023-08-31T14:59:05.817Z,87.90
2023-08-31T15:01:33.176Z,88.00
2023-08-31T15:04:00.691Z,88.30
2023-08-31T15:06:31.114Z,88.20
2023-08-31T15:08:59.002Z,88.30
2023-08-31T15:11:30.185Z,88.20
2023-08-31T15:13:57.746Z,88.10
2023-08-31T15:16:25.515Z,88.00
2023-08-31T15:18:52.854Z,88.10
2023-08-31T15:21:21.116Z,88.10
2023-08-31T15:23:48.633Z,88.10
2023-08-31T15:26:16.264Z,88.10
2023-08-31T15:28:43.697Z,88.00
2023-08-31T15:31:14.501Z,88.00
2023-08-31T15:33:42.861Z,87.90
2023-08-31T15:36:11.281Z,87.90
2023-08-31T15:38:39.596Z,87.90
2023-08-31T15:41:09.278Z,88.00
2023-08-31T15:43:39.730Z,87.90
2023-08-31T15:46:07.464Z,88.00
2023-08-31T15:48:34.948Z,88.20
2023-08-31T15:51:02.449Z,88.30
2023-08-31T15:53:30.460Z,88.50
2023-08-31T15:55:57.946Z,88.70
2023-08-31T15:58:28.161Z,89.30
2023-08-31T16:01:05.973Z,88.70
2023-08-31T16:03:37.642Z,88.70
2023-08-31T16:06:09.371Z,88.80
2023-08-31T16:08:37.088Z,89.10
2023-08-31T16:11:06.125Z,89.20
2023-08-31T16:13:35.358Z,89.20
2023-08-31T16:16:02.827Z,89.40
2023-08-31T16:18:30.342Z,89.40
2023-08-31T16:21:01.764Z,89.50
2023-08-31T16:23:29.178Z,89.50
2023-08-31T16:25:58.000Z,89.40
2023-08-31T16:28:25.522Z,89.50
2023-08-31T16:30:53.014Z,89.50
2023-08-31T16:33:20.570Z,89.30
2023-08-31T16:35:49.667Z,89.30
2023-08-31T16:38:18.515Z,89.20
2023-08-31T16:40:46.814Z,89.20
2023-08-31T16:43:14.526Z,89.20
2023-08-31T16:45:44.457Z,89.20
2023-08-31T16:48:12.635Z,89.20
2023-08-31T16:50:40.986Z,89.40
2023-08-31T16:53:08.710Z,89.30
2023-08-31T16:55:40.562Z,89.40
2023-08-31T16:58:08.687Z,89.30
2023-08-31T17:00:36.074Z,89.30
2023-08-31T17:03:07.242Z,89.20
2023-08-31T17:05:34.884Z,89.20
2023-08-31T17:08:03.726Z,89.10
2023-08-31T17:10:31.599Z,89.00
2023-08-31T17:12:59.096Z,89.10
2023-08-31T17:15:26.724Z,89.70
2023-08-31T17:17:55.753Z,89.80
2023-08-31T17:20:23.526Z,89.70
2023-08-31T17:22:50.940Z,89.70
2023-08-31T17:25:18.439Z,89.50
2023-08-31T17:27:45.972Z,89.60
2023-08-31T17:30:13.492Z,89.50
2023-08-31T17:32:41.136Z,89.40
2023-08-31T17:35:10.667Z,89.30
2023-08-31T17:37:39.816Z,89.30
2023-08-31T17:40:08.897Z,89.10
2023-08-31T17:42:42.394Z,89.10
2023-08-31T17:45:11.792Z,89.00
2023-08-31T17:47:39.964Z,88.90
2023-08-31T17:50:07.880Z,88.90
2023-08-31T17:52:35.829Z,88.90
2023-08-31T17:55:05.213Z,88.90
2023-08-31T17:57:34.019Z,88.90
2023-08-31T18:00:05.089Z,88.80
2023-08-31T18:02:32.590Z,89.10
2023-08-31T18:05:01.026Z,89.20
2023-08-31T18:07:28.522Z,89.40
2023-08-31T18:09:56.134Z,89.40
2023-08-31T18:12:23.804Z,89.40
2023-08-31T18:14:51.287Z,89.50
2023-08-31T18:17:19.260Z,89.30
2023-08-31T18:19:46.868Z,89.40
2023-08-31T18:22:14.339Z,89.30
2023-08-31T18:24:41.700Z,89.30
2023-08-31T18:27:11.966Z,89.30
2023-08-31T18:29:39.629Z,89.40
2023-08-31T18:32:07.325Z,89.40
2023-08-31T18:34:35.238Z,89.50
2023-08-31T18:37:03.699Z,89.70
2023-08-31T18:39:31.154Z,89.60
2023-08-31T18:41:58.888Z,89.60
2023-08-31T18:44:26.255Z,89.60
2023-08-31T18:46:53.841Z,89.60
2023-08-31T18:49:21.656Z,89.60
2023-08-31T18:51:49.226Z,89.50
2023-08-31T18:54:17.023Z,89.60
2023-08-31T18:56:44.521Z,89.60
2023-08-31T18:59:12.121Z,89.50
2023-08-31T19:01:39.666Z,89.50
2023-08-31T19:04:07.780Z,89.30
2023-08-31T19:06:35.377Z,89.40
2023-08-31T19:09:04.798Z,89.60
2023-08-31T19:11:32.306Z,89.70
2023-08-31T19:14:00.000Z,89.60
2023-08-31T19:16:27.639Z,89.50
2023-08-31T19:18:56.029Z,89.50
2023-08-31T19:21:24.709Z,89.40
2023-08-31T19:23:52.135Z,89.50
2023-08-31T19:26:20.021Z,89.50
2023-08-31T19:28:47.553Z,89.50
2023-08-31T19:31:15.099Z,89.50
2023-08-31T19:33:42.604Z,89.40
2023-08-31T19:36:12.879Z,89.40
2023-08-31T19:38:41.024Z,89.30
2023-08-31T19:41:08.654Z,89.50
2023-08-31T19:43:36.176Z,89.40
2023-08-31T19:46:04.607Z,89.40
2023-08-31T19:48:33.081Z,89.40
2023-08-31T19:51:06.638Z,89.30
2023-08-31T19:53:34.838Z,89.30
2023-08-31T19:56:07.104Z,89.40
2023-08-31T19:58:37.745Z,89.30
2023-08-31T20:01:05.413Z,89.30
2023-08-31T20:03:39.578Z,89.40
2023-08-31T20:06:08.028Z,89.20
2023-08-31T20:08:37.192Z,89.40
2023-08-31T20:11:04.525Z,89.40
2023-08-31T20:13:32.256Z,89.30
2023-08-31T20:16:04.724Z,89.20
2023-08-31T20:18:33.232Z,89.20
2023-08-31T20:21:00.937Z,89.30
2023-08-31T20:23:28.438Z,89.30
2023-08-31T20:25:57.648Z,89.40
2023-08-31T20:28:25.216Z,89.70
2023-08-31T20:30:53.066Z,89.70
2023-08-31T20:33:20.773Z,89.60
2023-08-31T20:35:49.373Z,89.70
2023-08-31T20:38:17.274Z,89.80
2023-08-31T20:40:44.940Z,89.80
2023-08-31T20:43:12.468Z,89.80
2023-08-31T20:45:40.146Z,89.80
2023-08-31T20:48:10.825Z,89.80
2023-08-31T20:50:38.568Z,90.40
2023-08-31T20:53:06.166Z,90.90
2023-08-31T20:55:33.517Z,91.00
2023-08-31T20:58:00.872Z,91.00
2023-08-31T21:00:28.368Z,91.10
2023-08-31T21:02:55.987Z,91.10
2023-08-31T21:05:23.612Z,91.10
2023-08-31T21:07:51.111Z,91.10
2023-08-31T21:10:18.854Z,91.10
2023-08-31T21:12:46.425Z,91.20
2023-08-31T21:15:13.661Z,91.20
2023-08-31T21:17:41.175Z,91.20
2023-08-31T21:20:09.493Z,91.10
2023-08-31T21:22:37.268Z,91.10
2023-08-31T21:25:05.565Z,91.10
2023-08-31T21:27:32.883Z,91.10
2023-08-31T21:30:00.480Z,90.90
2023-08-31T21:32:27.980Z,90.90
2023-08-31T21:34:55.655Z,90.80
2023-08-31T21:37:23.191Z,90.70
2023-08-31T21:39:50.666Z,90.70
2023-08-31T21:42:18.216Z,90.70
2023-08-31T21:44:45.785Z,90.70
2023-08-31T21:47:13.141Z,90.80
2023-08-31T21:49:40.752Z,91.00
2023-08-31T21:52:08.351Z,91.00
2023-08-31T21:54:35.853Z,91.00
2023-08-31T21:57:03.434Z,90.90
2023-08-31T21:59:31.046Z,91.00
2023-08-31T22:01:58.667Z,91.10
2023-08-31T22:04:29.390Z,91.10
2023-08-31T22:06:57.495Z,91.10
2023-08-31T22:09:25.211Z,91.20
2023-08-31T22:11:52.677Z,91.10
2023-08-31T22:14:20.070Z,91.10
2023-08-31T22:16:47.729Z,91.20
2023-08-31T22:19:15.525Z,91.40
2023-08-31T22:21:43.568Z,91.30
2023-08-31T22:24:11.015Z,91.30
2023-08-31T22:26:38.487Z,91.30
2023-08-31T22:29:05.922Z,91.30
2023-08-31T22:31:37.534Z,91.40
2023-08-31T22:34:05.206Z,91.40
2023-08-31T22:36:32.748Z,91.40
2023-08-31T22:39:00.128Z,91.50
2023-08-31T22:41:29.830Z,91.50
2023-08-31T22:43:57.503Z,91.40
2023-08-31T22:46:25.035Z,91.70
2023-08-31T22:48:54.661Z,91.50
2023-08-31T22:51:22.116Z,91.40
2023-08-31T22:53:49.705Z,91.50
2023-08-31T22:56:16.968Z,91.50
2023-08-31T22:58:44.339Z,91.50
2023-08-31T23:01:11.746Z,91.50
2023-08-31T23:03:39.171Z,91.60
2023-08-31T23:06:07.670Z,91.60
2023-08-31T23:08:35.087Z,91.50
2023-08-31T23:11:03.436Z,91.50
2023-08-31T23:13:30.920Z,91.50
2023-08-31T23:15:58.560Z,91.70
2023-08-31T23:18:28.868Z,91.60
2023-08-31T23:21:14.282Z,91.60
2023-08-31T23:23:41.541Z,91.50
2023-08-31T23:26:09.091Z,91.30
2023-08-31T23:28:36.524Z,91.80
2023-08-31T23:31:04.516Z,91.80
2023-08-31T23:33:32.209Z,91.90
2023-08-31T23:35:59.813Z,91.90
2023-08-31T23:38:27.668Z,91.80
2023-08-31T23:40:58.316Z,91.90
2023-08-31T23:43:26.636Z,91.80
2023-08-31T23:45:54.249Z,91.80
2023-08-31T23:48:21.778Z,91.90
2023-08-31T23:50:49.276Z,91.80
2023-08-31T23:53:17.143Z,91.80
2023-08-31T23:55:44.852Z,91.80
2023-08-31T23:58:14.101Z,91.80
